sensor_id;sensor_type;location;lat;lon;timestamp;pressure;altitude;pressure_sealevel;temperature;humidity
43281;BME280;62175;49.416;8.690;2023-02-04T00:02:10;101858.14;;;11.59;56.57
43281;BME280;62175;49.416;8.690;2023-02-04T00:04:38;101852.62;;;11.69;56.50
43281;BME280;62175;49.416;8.690;2023-02-04T00:07:05;101855.55;;;11.51;56.81
43281;BME280;62175;49.416;8.690;2023-02-04T00:09:32;101864.17;;;11.22;56.80
43281;BME280;62175;49.416;8.690;2023-02-04T00:12:00;101863.10;;;11.39;56.71
43281;BME280;62175;49.416;8.690;2023-02-04T00:14:27;101870.54;;;11.60;56.68
43281;BME280;62175;49.416;8.690;2023-02-04T00:16:54;101868.60;;;11.80;56.89
43281;BME280;62175;49.416;8.690;2023-02-04T00:19:21;101864.49;;;11.67;56.82
43281;BME280;62175;49.416;8.690;2023-02-04T00:21:49;101874.69;;;11.15;56.62
43281;BME280;62175;49.416;8.690;2023-02-04T00:24:16;101876.28;;;11.61;56.73
43281;BME280;62175;49.416;8.690;2023-02-04T00:26:43;101873.41;;;11.69;56.39
43281;BME280;62175;49.416;8.690;2023-02-04T00:29:10;101879.54;;;11.59;57.30
43281;BME280;62175;49.416;8.690;2023-02-04T00:31:37;101880.22;;;11.53;56.69
43281;BME280;62175;49.416;8.690;2023-02-04T00:34:05;101885.83;;;11.67;57.22
43281;BME280;62175;49.416;8.690;2023-02-04T00:36:32;101893.76;;;11.68;56.97
43281;BME280;62175;49.416;8.690;2023-02-04T00:38:59;101897.34;;;11.57;56.96
43281;BME280;62175;49.416;8.690;2023-02-04T00:41:26;101899.86;;;11.45;56.89
43281;BME280;62175;49.416;8.690;2023-02-04T00:43:53;101900.43;;;11.44;56.87
43281;BME280;62175;49.416;8.690;2023-02-04T00:46:21;101895.99;;;11.51;56.99
43281;BME280;62175;49.416;8.690;2023-02-04T00:48:48;101897.59;;;11.65;58.21
43281;BME280;62175;49.416;8.690;2023-02-04T00:51:16;101903.45;;;11.54;56.94
43281;BME280;62175;49.416;8.690;2023-02-04T00:53:43;101902.86;;;11.63;56.77
43281;BME280;62175;49.416;8.690;2023-02-04T00:56:11;101898.58;;;11.61;56.51
43281;BME280;62175;49.416;8.690;2023-02-04T00:58:38;101899.92;;;11.50;56.33
43281;BME280;62175;49.416;8.690;2023-02-04T01:01:05;101901.70;;;11.56;55.85
43281;BME280;62175;49.416;8.690;2023-02-04T01:03:32;101902.45;;;11.59;55.93
43281;BME280;62175;49.416;8.690;2023-02-04T01:06:00;101903.77;;;11.56;56.99
43281;BME280;62175;49.416;8.690;2023-02-04T01:08:28;101907.39;;;11.34;54.98
43281;BME280;62175;49.416;8.690;2023-02-04T01:10:56;101911.46;;;11.58;55.56
43281;BME280;62175;49.416;8.690;2023-02-04T01:13:23;101908.73;;;11.41;56.69
43281;BME280;62175;49.416;8.690;2023-02-04T01:15:51;101905.95;;;11.44;56.68
43281;BME280;62175;49.416;8.690;2023-02-04T01:18:18;101912.90;;;11.36;55.11
43281;BME280;62175;49.416;8.690;2023-02-04T01:20:45;101919.44;;;11.48;55.25
43281;BME280;62175;49.416;8.690;2023-02-04T01:23:13;101914.02;;;11.36;55.72
43281;BME280;62175;49.416;8.690;2023-02-04T01:25:40;101918.06;;;11.16;55.60
43281;BME280;62175;49.416;8.690;2023-02-04T01:28:07;101921.31;;;11.27;55.58
43281;BME280;62175;49.416;8.690;2023-02-04T01:30:34;101921.50;;;11.31;55.06
43281;BME280;62175;49.416;8.690;2023-02-04T01:33:02;101921.66;;;11.14;54.07
43281;BME280;62175;49.416;8.690;2023-02-04T01:35:29;101921.76;;;11.33;54.38
43281;BME280;62175;49.416;8.690;2023-02-04T01:37:56;101925.57;;;11.00;54.65
43281;BME280;62175;49.416;8.690;2023-02-04T01:40:24;101924.30;;;11.11;54.08
43281;BME280;62175;49.416;8.690;2023-02-04T01:42:52;101924.12;;;11.19;54.72
43281;BME280;62175;49.416;8.690;2023-02-04T01:45:20;101934.17;;;11.19;54.67
43281;BME280;62175;49.416;8.690;2023-02-04T01:47:47;101940.75;;;11.02;53.96
43281;BME280;62175;49.416;8.690;2023-02-04T01:50:16;101944.61;;;11.23;54.55
43281;BME280;62175;49.416;8.690;2023-02-04T01:52:44;101948.46;;;11.08;54.23
43281;BME280;62175;49.416;8.690;2023-02-04T01:55:16;101941.03;;;11.15;54.38
43281;BME280;62175;49.416;8.690;2023-02-04T01:57:44;101937.53;;;11.18;54.28
43281;BME280;62175;49.416;8.690;2023-02-04T02:00:15;101939.63;;;11.28;54.15
43281;BME280;62175;49.416;8.690;2023-02-04T02:02:45;101944.84;;;11.25;54.94
43281;BME280;62175;49.416;8.690;2023-02-04T02:05:15;101949.65;;;11.17;54.71
43281;BME280;62175;49.416;8.690;2023-02-04T02:07:44;101950.77;;;11.50;54.62
43281;BME280;62175;49.416;8.690;2023-02-04T02:10:13;101954.60;;;11.63;54.88
43281;BME280;62175;49.416;8.690;2023-02-04T02:12:42;101955.20;;;11.16;52.37
43281;BME280;62175;49.416;8.690;2023-02-04T02:15:11;101959.08;;;11.00;54.21
43281;BME280;62175;49.416;8.690;2023-02-04T02:17:39;101953.74;;;11.30;53.53
43281;BME280;62175;49.416;8.690;2023-02-04T02:20:08;101953.03;;;11.41;54.75
43281;BME280;62175;49.416;8.690;2023-02-04T02:22:43;101956.87;;;11.36;54.58
43281;BME280;62175;49.416;8.690;2023-02-04T23:02:53;102619.16;;;9.98;43.20
43281;BME280;62175;49.416;8.690;2023-02-04T23:05:20;102620.72;;;9.96;43.27
43281;BME280;62175;49.416;8.690;2023-02-04T23:07:48;102623.90;;;10.00;42.45
43281;BME280;62175;49.416;8.690;2023-02-04T23:10:16;102625.94;;;9.87;43.33
43281;BME280;62175;49.416;8.690;2023-02-04T23:12:43;102630.66;;;10.05;42.18
43281;BME280;62175;49.416;8.690;2023-02-04T23:15:11;102631.34;;;9.64;42.68
43281;BME280;62175;49.416;8.690;2023-02-04T23:17:39;102634.55;;;10.00;42.15
43281;BME280;62175;49.416;8.690;2023-02-04T23:20:06;102632.08;;;9.92;42.23
43281;BME280;62175;49.416;8.690;2023-02-04T23:22:34;102634.66;;;10.03;42.72
43281;BME280;62175;49.416;8.690;2023-02-04T23:25:01;102633.50;;;9.80;42.33
43281;BME280;62175;49.416;8.690;2023-02-04T23:27:28;102637.56;;;10.01;43.80
43281;BME280;62175;49.416;8.690;2023-02-04T23:29:56;102632.46;;;9.64;42.43
43281;BME280;62175;49.416;8.690;2023-02-04T23:32:23;102628.27;;;9.83;43.20
43281;BME280;62175;49.416;8.690;2023-02-04T23:34:51;102630.16;;;9.61;42.04
43281;BME280;62175;49.416;8.690;2023-02-04T23:37:18;102630.75;;;9.37;43.03
43281;BME280;62175;49.416;8.690;2023-02-04T23:39:45;102634.06;;;9.42;42.88
43281;BME280;62175;49.416;8.690;2023-02-04T23:42:13;102635.97;;;9.32;42.43
43281;BME280;62175;49.416;8.690;2023-02-04T23:44:41;102633.38;;;9.56;46.29
43281;BME280;62175;49.416;8.690;2023-02-04T23:47:08;102633.67;;;9.43;43.34
43281;BME280;62175;49.416;8.690;2023-02-04T23:49:35;102635.24;;;9.29;43.52
43281;BME280;62175;49.416;8.690;2023-02-04T23:52:03;102632.87;;;9.81;42.62
43281;BME280;62175;49.416;8.690;2023-02-04T23:54:30;102631.03;;;9.84;43.67
43281;BME280;62175;49.416;8.690;2023-02-04T23:56:57;102629.36;;;9.35;42.52
43281;BME280;62175;49.416;8.690;2023-02-04T23:59:25;102628.69;;;9.35;43.54
